createdAt,value
2022-12-11T00:00:06.376Z,87.01
2022-12-11T00:02:32.774Z,87.03
2022-12-11T00:04:59.178Z,87.00
2022-12-11T00:07:25.582Z,87.08
2022-12-11T00:09:51.998Z,86.86
2022-12-11T00:12:18.475Z,86.87
2022-12-11T00:14:44.847Z,86.87
2022-12-11T00:17:11.264Z,86.94
2022-12-11T00:19:37.634Z,87.31
2022-12-11T00:22:04.016Z,87.43
2022-12-11T00:24:30.525Z,87.47
2022-12-11T00:26:56.896Z,87.75
2022-12-11T00:29:23.298Z,87.90
2022-12-11T00:31:49.810Z,88.07
2022-12-11T00:34:16.272Z,88.21
2022-12-11T00:36:42.701Z,88.29
2022-12-11T00:39:09.119Z,88.19
2022-12-11T00:41:35.565Z,88.01
2022-12-11T00:44:03.195Z,88.24
2022-12-11T00:46:29.577Z,88.29
2022-12-11T00:48:55.980Z,88.18
2022-12-11T00:51:22.735Z,88.13
2022-12-11T00:53:49.235Z,88.09
2022-12-11T00:56:18.703Z,88.30
2022-12-11T00:58:46.638Z,88.38
2022-12-11T01:01:19.275Z,88.25
2022-12-11T01:03:46.217Z,88.28
2022-12-11T01:06:18.512Z,88.51
2022-12-11T01:08:45.706Z,88.71
2022-12-11T01:11:14.410Z,88.61
2022-12-11T01:13:42.187Z,88.46
2022-12-11T01:16:14.950Z,88.51
2022-12-11T01:18:41.656Z,88.68
2022-12-11T01:21:09.961Z,88.81
2022-12-11T01:23:36.941Z,88.58
2022-12-11T01:26:13.076Z,88.54
2022-12-11T01:28:40.793Z,88.79
2022-12-11T01:31:11.982Z,88.81
2022-12-11T01:33:38.989Z,89.00
2022-12-11T01:36:14.422Z,88.79
2022-12-11T01:38:41.149Z,88.58
2022-12-11T01:41:07.769Z,88.51
2022-12-11T01:43:34.173Z,88.48
2022-12-11T01:46:00.695Z,88.45
2022-12-11T01:48:32.278Z,88.26
2022-12-11T01:51:02.694Z,88.26
2022-12-11T01:53:36.978Z,87.98
2022-12-11T01:56:04.701Z,87.98
2022-12-11T01:58:34.302Z,87.84
2022-12-11T02:01:02.550Z,87.76
2022-12-11T02:03:29.005Z,87.86
2022-12-11T02:06:02.404Z,87.43
2022-12-11T02:08:29.668Z,87.60
2022-12-11T02:11:18.465Z,87.52
2022-12-11T02:14:09.004Z,87.47
2022-12-11T02:16:50.058Z,87.05
2022-12-11T02:19:38.869Z,87.09
2022-12-11T02:22:11.254Z,86.99
2022-12-11T02:24:44.731Z,86.95
2022-12-11T02:27:23.652Z,86.76
2022-12-11T02:30:09.217Z,86.63
2022-12-11T02:32:46.912Z,86.74
2022-12-11T02:35:13.527Z,86.84
2022-12-11T02:37:45.023Z,86.53
2022-12-11T02:40:14.477Z,86.34
2022-12-11T02:42:43.873Z,86.29
2022-12-11T02:45:12.515Z,86.26
2022-12-11T02:47:39.571Z,86.47
2022-12-11T02:50:12.478Z,86.18
2022-12-11T02:52:41.810Z,85.98
2022-12-11T02:55:11.232Z,85.88
2022-12-11T02:58:00.044Z,86.08
2022-12-11T03:00:26.454Z,85.82
2022-12-11T03:02:52.905Z,86.05
2022-12-11T03:05:19.586Z,85.76
2022-12-11T03:07:46.050Z,85.70
2022-12-11T03:10:18.672Z,85.90
2022-12-11T03:12:53.429Z,85.96
2022-12-11T03:15:23.905Z,85.99
2022-12-11T03:18:15.191Z,85.82
2022-12-11T03:20:45.485Z,85.64
2022-12-11T03:23:24.047Z,85.61
2022-12-11T03:25:57.206Z,85.31
2022-12-11T03:28:56.308Z,85.13
2022-12-11T03:31:36.828Z,85.07
2022-12-11T03:34:11.405Z,85.05
2022-12-11T03:36:39.814Z,84.88
2022-12-11T03:39:11.722Z,85.03
2022-12-11T03:41:39.788Z,84.98
2022-12-11T03:44:07.363Z,84.78
2022-12-11T03:46:39.066Z,84.52
2022-12-11T03:49:27.933Z,84.68
2022-12-11T03:51:57.992Z,84.24
2022-12-11T03:54:25.061Z,84.30
2022-12-11T03:56:55.851Z,84.25
2022-12-11T03:59:22.493Z,84.20
2022-12-11T04:01:48.893Z,84.02
2022-12-11T04:04:15.474Z,84.09
2022-12-11T04:06:41.950Z,84.06
2022-12-11T04:09:08.818Z,84.02
2022-12-11T04:11:35.264Z,83.92
2022-12-11T04:14:28.542Z,83.89
2022-12-11T04:16:56.153Z,84.01
2022-12-11T04:19:42.135Z,84.05
2022-12-11T04:22:31.832Z,84.42
2022-12-11T04:24:58.575Z,84.36
2022-12-11T04:27:43.520Z,84.54
2022-12-11T04:30:13.804Z,84.35
2022-12-11T04:32:40.195Z,84.30
2022-12-11T04:35:09.013Z,84.32
2022-12-11T04:37:36.620Z,84.45
2022-12-11T04:40:05.130Z,84.39
2022-12-11T04:42:31.566Z,84.28
2022-12-11T04:44:57.962Z,84.17
2022-12-11T04:47:24.424Z,83.97
2022-12-11T04:49:50.830Z,83.94
2022-12-11T04:52:17.958Z,83.76
2022-12-11T04:54:44.449Z,83.57
2022-12-11T04:57:10.843Z,83.34
2022-12-11T04:59:37.384Z,83.13
2022-12-11T05:02:04.648Z,82.96
2022-12-11T05:04:35.277Z,83.13
2022-12-11T05:07:01.981Z,83.35
2022-12-11T05:09:28.546Z,83.07
2022-12-11T05:11:55.734Z,82.86
2022-12-11T05:14:22.237Z,82.98
2022-12-11T05:16:48.708Z,83.14
2022-12-11T05:19:15.287Z,83.24
2022-12-11T05:21:41.841Z,83.51
2022-12-11T05:24:08.631Z,83.49
2022-12-11T05:26:35.018Z,83.55
2022-12-11T05:29:01.388Z,83.43
2022-12-11T05:31:27.919Z,83.53
2022-12-11T05:33:54.755Z,83.05
2022-12-11T05:36:24.116Z,83.46
2022-12-11T05:38:51.170Z,83.47
2022-12-11T05:41:21.646Z,83.57
2022-12-11T05:43:48.457Z,83.65
2022-12-11T05:46:23.379Z,83.68
2022-12-11T05:48:51.721Z,83.77
2022-12-11T05:51:18.886Z,83.82
2022-12-11T05:53:49.239Z,83.54
2022-12-11T05:56:19.065Z,83.43
2022-12-11T05:58:48.718Z,83.29
2022-12-11T06:01:18.943Z,83.23
2022-12-11T06:03:45.501Z,83.53
2022-12-11T06:06:12.210Z,83.38
2022-12-11T06:08:38.660Z,83.40
2022-12-11T06:11:05.787Z,83.20
2022-12-11T06:13:32.702Z,82.99
2022-12-11T06:16:04.447Z,82.97
2022-12-11T06:18:31.400Z,83.03
2022-12-11T06:20:58.207Z,82.72
2022-12-11T06:23:24.555Z,82.86
2022-12-11T06:25:50.941Z,83.08
2022-12-11T06:28:17.511Z,82.98
2022-12-11T06:30:44.897Z,82.79
2022-12-11T06:33:11.250Z,82.63
2022-12-11T06:35:41.998Z,82.84
2022-12-11T06:38:10.455Z,82.86
2022-12-11T06:40:36.875Z,82.93
2022-12-11T06:43:03.474Z,82.89
2022-12-11T06:45:29.888Z,83.16
2022-12-11T06:47:56.301Z,83.21
2022-12-11T06:50:22.714Z,82.97
2022-12-11T06:52:49.096Z,82.89
2022-12-11T06:55:15.538Z,83.33
2022-12-11T06:57:41.902Z,83.35
2022-12-11T07:00:08.994Z,83.25
2022-12-11T07:02:35.434Z,83.02
2022-12-11T07:05:01.938Z,82.84
2022-12-11T07:07:28.347Z,82.88
2022-12-11T07:09:54.745Z,82.79
2022-12-11T07:12:21.164Z,82.73
2022-12-11T07:14:47.506Z,82.44
2022-12-11T07:17:14.001Z,82.57
2022-12-11T07:19:40.825Z,82.51
2022-12-11T07:22:07.326Z,82.47
2022-12-11T07:24:33.673Z,82.49
2022-12-11T07:27:00.040Z,82.74
2022-12-11T07:29:26.494Z,82.85
2022-12-11T07:31:52.981Z,82.77
2022-12-11T07:34:19.549Z,82.69
2022-12-11T07:36:46.166Z,82.60
2022-12-11T07:39:12.969Z,82.44
2022-12-11T07:41:39.789Z,82.53
2022-12-11T07:44:06.155Z,82.62
2022-12-11T07:46:34.382Z,82.78
2022-12-11T07:49:01.289Z,82.75
2022-12-11T07:51:32.937Z,82.93
2022-12-11T07:54:01.568Z,83.14
2022-12-11T07:56:29.424Z,82.79
2022-12-11T07:58:55.869Z,82.78
2022-12-11T08:01:26.209Z,82.79
2022-12-11T08:03:53.484Z,82.92
2022-12-11T08:06:24.460Z,82.91
2022-12-11T08:08:50.852Z,82.83
2022-12-11T08:11:17.218Z,82.65
2022-12-11T08:13:44.059Z,82.86
2022-12-11T08:16:13.486Z,82.83
2022-12-11T08:18:40.879Z,83.16
2022-12-11T08:21:25.404Z,83.23
2022-12-11T08:23:53.425Z,82.96
2022-12-11T08:26:29.214Z,82.90
2022-12-11T08:28:56.573Z,82.95
2022-12-11T08:31:23.597Z,82.69
2022-12-11T08:33:50.686Z,82.33
2022-12-11T08:36:20.718Z,82.51
2022-12-11T08:38:47.978Z,82.43
2022-12-11T08:41:26.342Z,82.15
2022-12-11T08:43:54.993Z,82.03
2022-12-11T08:46:23.914Z,81.92
2022-12-11T08:48:50.504Z,81.64
2022-12-11T08:51:20.769Z,81.54
2022-12-11T08:53:47.230Z,81.70
2022-12-11T08:56:15.730Z,81.92
2022-12-11T08:58:42.581Z,81.84
2022-12-11T09:01:15.030Z,81.87
2022-12-11T09:03:41.782Z,81.05
2022-12-11T09:06:11.897Z,81.11
2022-12-11T09:08:38.958Z,81.51
2022-12-11T09:11:10.869Z,81.69
2022-12-11T09:13:38.132Z,81.72
2022-12-11T09:16:07.463Z,81.93
2022-12-11T09:18:33.886Z,81.76
2022-12-11T09:21:06.135Z,81.64
2022-12-11T09:23:32.790Z,81.71
2022-12-11T09:25:59.299Z,81.45
2022-12-11T09:28:26.059Z,81.59
2022-12-11T09:30:52.779Z,81.83
2022-12-11T09:33:19.254Z,81.47
2022-12-11T09:35:45.701Z,81.26
2022-12-11T09:38:12.169Z,81.17
2022-12-11T09:40:43.199Z,80.86
2022-12-11T09:43:24.181Z,80.69
2022-12-11T09:45:51.293Z,80.64
2022-12-11T09:48:22.286Z,80.73
2022-12-11T09:50:53.772Z,80.49
2022-12-11T09:53:33.907Z,80.44
2022-12-11T09:56:07.714Z,80.20
2022-12-11T09:58:44.224Z,80.28
2022-12-11T10:01:29.707Z,79.94
2022-12-11T10:04:27.110Z,79.64
2022-12-11T10:06:53.428Z,79.39
2022-12-11T10:09:29.086Z,79.31
2022-12-11T10:12:07.021Z,78.94
2022-12-11T10:14:46.508Z,78.77
2022-12-11T10:17:20.300Z,79.01
2022-12-11T10:19:47.792Z,78.78
2022-12-11T10:22:22.710Z,79.05
2022-12-11T10:25:15.029Z,78.60
2022-12-11T10:27:41.669Z,78.26
2022-12-11T10:30:21.767Z,78.58
2022-12-11T10:33:18.402Z,78.31
2022-12-11T10:35:50.191Z,78.00
2022-12-11T10:38:32.722Z,77.83
2022-12-11T10:41:03.312Z,78.18
2022-12-11T10:43:39.637Z,77.28
2022-12-11T10:46:13.881Z,77.18
2022-12-11T10:48:47.736Z,76.57
2022-12-11T10:51:14.279Z,76.65
2022-12-11T10:53:43.191Z,76.75
2022-12-11T10:56:10.063Z,76.57
2022-12-11T10:58:41.236Z,76.35
2022-12-11T11:01:14.073Z,76.46
2022-12-11T11:04:13.929Z,76.69
2022-12-11T11:06:40.376Z,76.20
2022-12-11T11:09:31.507Z,75.54
2022-12-11T11:11:58.804Z,75.32
2022-12-11T11:14:26.443Z,75.37
2022-12-11T11:16:57.102Z,75.10
2022-12-11T11:19:33.332Z,75.21
2022-12-11T11:22:05.248Z,74.57
2022-12-11T11:24:38.593Z,74.19
2022-12-11T11:27:22.859Z,72.83
2022-12-11T11:29:53.887Z,70.64
2022-12-11T11:32:24.112Z,70.00
2022-12-11T11:34:50.517Z,69.84
2022-12-11T11:37:32.037Z,69.38
2022-12-11T11:40:08.316Z,68.81
2022-12-11T11:42:45.664Z,66.88
2022-12-11T11:45:26.450Z,66.22
2022-12-11T11:48:09.474Z,65.89
2022-12-11T11:50:41.078Z,63.13
2022-12-11T11:53:19.273Z,63.54
2022-12-11T11:56:18.058Z,60.91
2022-12-11T11:59:00.032Z,59.70
2022-12-11T12:01:26.783Z,55.01
2022-12-11T12:03:53.892Z,53.11
2022-12-11T12:06:55.195Z,52.54
2022-12-11T12:09:49.324Z,52.61
2022-12-11T12:12:33.752Z,50.49
2022-12-11T12:15:19.383Z,52.48
2022-12-11T12:17:55.818Z,52.07
2022-12-11T12:20:38.789Z,47.31
2022-12-11T12:23:52.660Z,48.12
2022-12-11T12:26:30.835Z,47.90
2022-12-11T12:29:29.065Z,46.65
2022-12-11T12:32:12.900Z,47.98
2022-12-11T12:35:11.749Z,47.98
2022-12-11T12:37:55.806Z,49.13
2022-12-11T12:40:40.630Z,49.20
2022-12-11T12:43:19.013Z,47.80
2022-12-11T12:45:59.072Z,47.77
2022-12-11T12:48:27.377Z,48.98
2022-12-11T12:50:55.696Z,49.78
2022-12-11T12:53:25.825Z,50.76
2022-12-11T12:55:53.226Z,51.51
2022-12-11T12:58:34.935Z,52.05
2022-12-11T13:01:14.386Z,51.64
2022-12-11T13:03:54.008Z,51.35
2022-12-11T13:06:32.671Z,50.53
2022-12-11T13:09:12.770Z,50.77
2022-12-11T13:11:39.329Z,52.09
2022-12-11T13:14:21.708Z,52.78
2022-12-11T13:16:50.463Z,53.39
2022-12-11T13:19:23.803Z,54.59
2022-12-11T13:22:15.721Z,55.23
2022-12-11T13:24:56.660Z,55.80
2022-12-11T13:27:27.165Z,56.86
2022-12-11T13:30:05.243Z,57.79
2022-12-11T13:32:31.990Z,59.00
2022-12-11T13:35:04.222Z,59.83
2022-12-11T13:37:36.530Z,60.26
2022-12-11T13:40:08.324Z,60.58
2022-12-11T13:42:44.392Z,60.68
2022-12-11T13:45:26.722Z,60.89
2022-12-11T13:47:53.196Z,60.30
2022-12-11T13:50:24.935Z,60.26
2022-12-11T13:52:59.763Z,59.64
2022-12-11T13:55:30.000Z,59.99
2022-12-11T13:57:56.918Z,58.04
2022-12-11T14:00:26.698Z,57.08
2022-12-11T14:02:55.759Z,56.92
2022-12-11T14:05:22.635Z,55.55
2022-12-11T14:07:51.793Z,53.23
2022-12-11T14:10:22.929Z,51.84
2022-12-11T14:13:01.142Z,51.66
2022-12-11T14:15:29.937Z,50.92
2022-12-11T14:17:58.003Z,50.77
2022-12-11T14:20:30.470Z,51.69
2022-12-11T14:23:19.610Z,51.44
2022-12-11T14:25:54.711Z,50.56
2022-12-11T14:28:23.077Z,50.43
2022-12-11T14:30:51.936Z,50.69
2022-12-11T14:33:22.098Z,51.91
2022-12-11T14:35:52.397Z,53.33
2022-12-11T14:38:26.881Z,54.33
2022-12-11T14:40:59.035Z,55.47
2022-12-11T14:43:33.982Z,56.52
2022-12-11T14:46:10.979Z,57.50
2022-12-11T14:48:45.946Z,58.26
2022-12-11T14:51:17.539Z,59.27
2022-12-11T14:53:52.010Z,59.87
2022-12-11T14:56:24.959Z,60.82
2022-12-11T14:59:26.888Z,61.81
2022-12-11T15:02:03.920Z,62.97
2022-12-11T15:04:32.925Z,63.81
2022-12-11T15:07:00.081Z,64.46
2022-12-11T15:09:36.179Z,65.59
2022-12-11T15:12:18.410Z,66.59
2022-12-11T15:14:57.283Z,67.68
2022-12-11T15:17:25.973Z,68.71
2022-12-11T15:19:55.794Z,69.57
2022-12-11T15:22:27.237Z,69.92
2022-12-11T15:24:54.597Z,70.81
2022-12-11T15:27:26.230Z,71.24
2022-12-11T15:29:52.935Z,71.54
2022-12-11T15:32:21.705Z,71.87
2022-12-11T15:34:55.649Z,72.23
2022-12-11T15:37:32.568Z,72.74
2022-12-11T15:40:01.465Z,73.34
2022-12-11T15:42:30.748Z,73.93
2022-12-11T15:44:58.880Z,74.20
2022-12-11T15:47:28.030Z,74.68
2022-12-11T15:50:00.589Z,75.08
2022-12-11T15:52:27.040Z,75.34
2022-12-11T15:54:53.592Z,76.17
2022-12-11T15:57:22.919Z,76.70
2022-12-11T15:59:51.210Z,77.17
2022-12-11T16:02:17.740Z,77.66
2022-12-11T16:04:44.326Z,77.81
2022-12-11T16:07:22.485Z,77.85
2022-12-11T16:09:49.044Z,78.02
2022-12-11T16:12:15.905Z,78.22
2022-12-11T16:14:43.718Z,78.30
2022-12-11T16:17:10.961Z,78.49
2022-12-11T16:19:37.567Z,79.35
2022-12-11T16:22:05.420Z,79.43
2022-12-11T16:24:33.147Z,79.55
2022-12-11T16:26:59.804Z,79.78
2022-12-11T16:29:26.226Z,80.02
2022-12-11T16:31:52.611Z,80.19
2022-12-11T16:34:19.147Z,80.57
2022-12-11T16:36:45.617Z,80.48
2022-12-11T16:39:12.972Z,80.78
2022-12-11T16:41:39.513Z,80.95
2022-12-11T16:44:06.600Z,80.90
2022-12-11T16:46:33.168Z,80.86
2022-12-11T16:48:59.628Z,80.91
2022-12-11T16:51:26.034Z,81.11
2022-12-11T16:53:52.442Z,80.97
2022-12-11T16:56:18.843Z,81.00
2022-12-11T16:58:47.595Z,81.14
2022-12-11T17:01:15.672Z,81.18
2022-12-11T17:03:44.139Z,81.53
2022-12-11T17:06:13.926Z,81.57
2022-12-11T17:08:42.597Z,81.67
2022-12-11T17:11:11.332Z,81.39
2022-12-11T17:13:38.341Z,81.40
2022-12-11T17:16:10.837Z,81.60
2022-12-11T17:18:37.976Z,81.74
2022-12-11T17:21:13.432Z,81.89
2022-12-11T17:23:40.961Z,81.97
2022-12-11T17:26:10.821Z,81.88
2022-12-11T17:28:38.278Z,81.97
2022-12-11T17:31:07.734Z,82.10
2022-12-11T17:33:34.773Z,82.16
2022-12-11T17:36:03.308Z,82.31
2022-12-11T17:38:30.041Z,82.54
2022-12-11T17:40:56.764Z,82.50
2022-12-11T17:43:23.206Z,82.55
2022-12-11T17:45:52.578Z,82.59
2022-12-11T17:48:22.377Z,82.60
2022-12-11T17:50:50.200Z,82.91
2022-12-11T17:53:19.084Z,83.02
2022-12-11T17:55:46.676Z,83.17
2022-12-11T17:58:19.480Z,83.09
2022-12-11T18:00:47.752Z,82.74
2022-12-11T18:03:14.532Z,83.00
2022-12-11T18:05:49.478Z,83.33
2022-12-11T18:08:19.520Z,83.37
2022-12-11T18:10:46.167Z,83.51
2022-12-11T18:13:13.127Z,83.64
2022-12-11T18:15:39.999Z,83.69
2022-12-11T18:18:07.362Z,83.74
2022-12-11T18:20:34.296Z,83.64
2022-12-11T18:23:01.237Z,83.97
2022-12-11T18:25:27.779Z,84.07
2022-12-11T18:27:57.681Z,84.36
2022-12-11T18:30:25.291Z,84.24
2022-12-11T18:32:52.042Z,84.35
2022-12-11T18:35:18.713Z,84.49
2022-12-11T18:37:54.818Z,84.50
2022-12-11T18:40:21.471Z,84.52
2022-12-11T18:42:47.886Z,84.48
2022-12-11T18:45:14.641Z,84.38
2022-12-11T18:47:41.244Z,84.29
2022-12-11T18:50:08.451Z,84.50
2022-12-11T18:52:35.162Z,84.13
2022-12-11T18:55:01.805Z,84.05
2022-12-11T18:57:28.233Z,83.98
2022-12-11T18:59:55.332Z,83.85
2022-12-11T19:02:22.708Z,83.77
2022-12-11T19:04:49.566Z,83.67
2022-12-11T19:07:16.201Z,83.58
2022-12-11T19:09:47.878Z,83.24
2022-12-11T19:12:15.116Z,83.20
2022-12-11T19:14:42.001Z,83.39
2022-12-11T19:17:08.798Z,83.47
2022-12-11T19:19:36.121Z,83.10
2022-12-11T19:22:03.456Z,83.24
2022-12-11T19:24:30.159Z,83.34
2022-12-11T19:26:57.219Z,83.56
2022-12-11T19:29:27.784Z,83.33
2022-12-11T19:31:55.981Z,83.56
2022-12-11T19:34:23.982Z,83.66
2022-12-11T19:36:51.053Z,83.55
2022-12-11T19:39:17.538Z,83.70
2022-12-11T19:41:44.013Z,83.81
2022-12-11T19:44:10.527Z,84.06
2022-12-11T19:46:37.638Z,83.80
2022-12-11T19:49:05.651Z,83.86
2022-12-11T19:51:38.404Z,84.30
2022-12-11T19:54:07.564Z,84.43
2022-12-11T19:56:35.163Z,84.50
2022-12-11T19:59:03.276Z,84.48
2022-12-11T20:01:32.464Z,84.53
2022-12-11T20:04:01.619Z,84.58
2022-12-11T20:06:30.298Z,84.62
2022-12-11T20:08:57.164Z,84.55
2022-12-11T20:11:24.229Z,84.75
2022-12-11T20:13:51.282Z,84.99
2022-12-11T20:16:28.905Z,85.10
2022-12-11T20:19:05.721Z,85.26
2022-12-11T20:21:32.139Z,85.25
2022-12-11T20:23:59.224Z,85.44
2022-12-11T20:26:25.913Z,85.60
2022-12-11T20:28:53.292Z,85.82
2022-12-11T20:31:23.194Z,85.89
2022-12-11T20:33:50.721Z,85.84
2022-12-11T20:36:20.126Z,85.89
2022-12-11T20:38:46.704Z,86.08
2022-12-11T20:41:15.466Z,86.24
2022-12-11T20:43:42.366Z,85.89
2022-12-11T20:46:10.614Z,86.07
2022-12-11T20:48:38.544Z,86.07
2022-12-11T20:51:06.802Z,86.29
2022-12-11T20:53:34.855Z,86.32
2022-12-11T20:56:01.669Z,86.29
2022-12-11T20:58:28.044Z,86.42
2022-12-11T21:00:54.570Z,86.51
2022-12-11T21:03:20.993Z,86.56
2022-12-11T21:05:47.433Z,86.66
2022-12-11T21:08:13.921Z,86.80
2022-12-11T21:10:44.656Z,86.97
2022-12-11T21:13:13.789Z,86.89
2022-12-11T21:15:40.994Z,86.79
2022-12-11T21:18:08.175Z,86.50
2022-12-11T21:20:35.406Z,86.65
2022-12-11T21:23:02.874Z,86.53
2022-12-11T21:25:29.457Z,86.41
2022-12-11T21:27:55.963Z,86.18
2022-12-11T21:30:22.549Z,85.95
2022-12-11T21:32:48.931Z,85.72
2022-12-11T21:35:15.412Z,85.58
2022-12-11T21:37:41.879Z,85.82
2022-12-11T21:40:09.458Z,86.00
2022-12-11T21:42:35.970Z,86.14
2022-12-11T21:47:50.144Z,86.38
2022-12-11T21:50:17.192Z,86.22
2022-12-11T21:52:43.629Z,86.19
2022-12-11T21:55:12.334Z,86.17
2022-12-11T21:57:39.066Z,86.45
2022-12-11T22:00:06.468Z,86.53
2022-12-11T22:02:37.467Z,86.55
2022-12-11T22:05:07.616Z,86.49
2022-12-11T22:07:34.019Z,86.85
2022-12-11T22:10:00.450Z,87.43
2022-12-11T22:12:28.338Z,87.14
2022-12-11T22:14:54.799Z,86.81
2022-12-11T22:17:21.282Z,86.74
2022-12-11T22:19:47.831Z,86.71
2022-12-11T22:24:58.413Z,86.49
2022-12-11T22:27:24.925Z,86.44
2022-12-11T22:29:51.322Z,86.47
2022-12-11T22:32:17.769Z,86.57
2022-12-11T22:34:44.180Z,86.69
2022-12-11T22:37:10.675Z,86.72
2022-12-11T22:39:37.165Z,86.67
2022-12-11T22:42:03.862Z,86.59
2022-12-11T22:44:30.290Z,86.61
2022-12-11T22:46:57.370Z,86.66
2022-12-11T22:49:23.794Z,86.53
2022-12-11T22:51:50.436Z,86.58
2022-12-11T22:54:16.947Z,86.26
2022-12-11T22:56:43.492Z,86.46
2022-12-11T22:59:10.000Z,86.59
2022-12-11T23:01:36.409Z,86.59
2022-12-11T23:04:02.850Z,86.76
2022-12-11T23:06:29.345Z,87.01
2022-12-11T23:09:00.415Z,87.03
2022-12-11T23:11:30.432Z,87.10
2022-12-11T23:13:57.958Z,87.25
2022-12-11T23:16:26.312Z,87.32
2022-12-11T23:18:54.129Z,87.41
2022-12-11T23:21:21.758Z,87.39
2022-12-11T23:23:48.589Z,87.40
2022-12-11T23:26:16.439Z,87.42
2022-12-11T23:28:42.853Z,87.68
2022-12-11T23:31:09.682Z,87.61
2022-12-11T23:33:36.773Z,87.90
2022-12-11T23:36:04.738Z,87.85
2022-12-11T23:38:31.346Z,87.79
2022-12-11T23:41:00.323Z,87.71
2022-12-11T23:43:27.202Z,87.75
2022-12-11T23:45:56.499Z,87.57
2022-12-11T23:48:23.294Z,87.37
2022-12-11T23:50:52.492Z,87.19
2022-12-11T23:53:18.983Z,87.53
2022-12-11T23:55:45.579Z,87.71
2022-12-11T23:58:12.861Z,87.80
